sensor_id;sensor_type;location;lat;lon;timestamp;P1;durP1;ratioP1;P2;durP2;ratioP2
17169;SDS011;8700;48.222;16.342;2023-04-07T00:02:50;19.50;;;17.70;;
17169;SDS011;8700;48.222;16.342;2023-04-07T00:06:12;19.53;;;17.60;;
17169;SDS011;8700;48.222;16.342;2023-04-07T00:09:35;18.43;;;16.73;;
17169;SDS011;8700;48.222;16.342;2023-04-07T00:12:56;19.80;;;17.80;;
17169;SDS011;8700;48.222;16.342;2023-04-07T00:16:17;18.30;;;16.60;;
17169;SDS011;8700;48.222;16.342;2023-04-07T00:19:39;16.53;;;15.03;;
17169;SDS011;8700;48.222;16.342;2023-04-07T00:23:02;20.57;;;18.47;;
17169;SDS011;8700;48.222;16.342;2023-04-07T00:26:24;18.40;;;16.70;;
17169;SDS011;8700;48.222;16.342;2023-04-07T00:29:49;17.57;;;15.97;;
17169;SDS011;8700;48.222;16.342;2023-04-07T00:33:13;19.43;;;17.57;;
17169;SDS011;8700;48.222;16.342;2023-04-07T00:36:35;18.03;;;15.70;;
17169;SDS011;8700;48.222;16.342;2023-04-07T00:39:56;19.00;;;17.30;;
17169;SDS011;8700;48.222;16.342;2023-04-07T00:43:19;18.63;;;16.93;;
17169;SDS011;8700;48.222;16.342;2023-04-07T00:46:40;18.50;;;16.83;;
17169;SDS011;8700;48.222;16.342;2023-04-07T00:50:02;18.73;;;17.03;;
17169;SDS011;8700;48.222;16.342;2023-04-07T00:53:24;17.70;;;15.90;;
17169;SDS011;8700;48.222;16.342;2023-04-07T00:56:45;20.23;;;18.33;;
17169;SDS011;8700;48.222;16.342;2023-04-07T01:00:09;18.63;;;16.83;;
17169;SDS011;8700;48.222;16.342;2023-04-07T01:03:34;20.00;;;17.73;;
17169;SDS011;8700;48.222;16.342;2023-04-07T01:07:05;17.07;;;15.67;;
17169;SDS011;8700;48.222;16.342;2023-04-07T01:10:36;19.33;;;17.43;;
17169;SDS011;8700;48.222;16.342;2023-04-07T01:14:06;19.20;;;17.23;;
17169;SDS011;8700;48.222;16.342;2023-04-07T01:17:32;19.77;;;17.87;;
17169;SDS011;8700;48.222;16.342;2023-04-07T01:21:02;20.63;;;18.57;;
17169;SDS011;8700;48.222;16.342;2023-04-07T01:24:33;19.57;;;17.70;;
17169;SDS011;8700;48.222;16.342;2023-04-07T01:28:20;17.93;;;16.33;;
17169;SDS011;8700;48.222;16.342;2023-04-07T01:31:54;16.80;;;15.17;;
17169;SDS011;8700;48.222;16.342;2023-04-07T01:35:18;18.97;;;16.97;;
17169;SDS011;8700;48.222;16.342;2023-04-07T01:38:40;19.10;;;17.20;;
17169;SDS011;8700;48.222;16.342;2023-04-07T01:42:05;17.97;;;16.30;;
17169;SDS011;8700;48.222;16.342;2023-04-07T01:45:27;17.93;;;16.33;;
17169;SDS011;8700;48.222;16.342;2023-04-07T01:48:51;16.83;;;15.27;;
17169;SDS011;8700;48.222;16.342;2023-04-07T01:52:13;20.20;;;18.13;;
17169;SDS011;8700;48.222;16.342;2023-04-07T01:55:36;17.20;;;15.60;;
17169;SDS011;8700;48.222;16.342;2023-04-07T01:58:58;17.63;;;15.77;;
17169;SDS011;8700;48.222;16.342;2023-04-07T02:02:19;17.60;;;15.87;;
17169;SDS011;8700;48.222;16.342;2023-04-07T02:05:42;18.47;;;16.83;;
17169;SDS011;8700;48.222;16.342;2023-04-07T02:09:05;17.17;;;15.63;;
17169;SDS011;8700;48.222;16.342;2023-04-07T02:12:30;17.30;;;15.17;;
17169;SDS011;8700;48.222;16.342;2023-04-07T02:15:53;18.13;;;16.43;;
17169;SDS011;8700;48.222;16.342;2023-04-07T02:19:19;17.73;;;15.93;;
17169;SDS011;8700;48.222;16.342;2023-04-07T02:22:42;18.53;;;16.83;;
17169;SDS011;8700;48.222;16.342;2023-04-07T02:26:04;18.80;;;17.10;;
17169;SDS011;8700;48.222;16.342;2023-04-07T02:29:28;20.47;;;18.53;;
17169;SDS011;8700;48.222;16.342;2023-04-07T02:32:49;16.00;;;14.43;;
17169;SDS011;8700;48.222;16.342;2023-04-07T02:36:11;17.40;;;15.90;;
17169;SDS011;8700;48.222;16.342;2023-04-07T02:39:34;18.33;;;15.40;;
17169;SDS011;8700;48.222;16.342;2023-04-07T02:42:55;17.10;;;15.40;;
17169;SDS011;8700;48.222;16.342;2023-04-07T02:46:16;18.70;;;16.90;;
17169;SDS011;8700;48.222;16.342;2023-04-07T02:49:37;19.17;;;17.33;;
17169;SDS011;8700;48.222;16.342;2023-04-07T02:52:59;19.53;;;17.53;;
17169;SDS011;8700;48.222;16.342;2023-04-07T02:56:22;17.67;;;15.53;;
17169;SDS011;8700;48.222;16.342;2023-04-07T02:59:43;20.17;;;17.43;;
17169;SDS011;8700;48.222;16.342;2023-04-07T03:03:04;19.73;;;17.03;;
17169;SDS011;8700;48.222;16.342;2023-04-07T03:06:26;19.27;;;17.37;;
17169;SDS011;8700;48.222;16.342;2023-04-07T03:09:47;17.83;;;15.93;;
17169;SDS011;8700;48.222;16.342;2023-04-07T03:13:10;18.40;;;16.60;;
17169;SDS011;8700;48.222;16.342;2023-04-07T03:16:34;18.90;;;17.20;;
17169;SDS011;8700;48.222;16.342;2023-04-07T03:19:56;18.43;;;16.47;;
17169;SDS011;8700;48.222;16.342;2023-04-07T03:23:20;16.50;;;14.83;;
17169;SDS011;8700;48.222;16.342;2023-04-07T03:26:42;18.97;;;17.13;;
17169;SDS011;8700;48.222;16.342;2023-04-07T03:30:06;20.03;;;17.33;;
17169;SDS011;8700;48.222;16.342;2023-04-07T03:33:28;19.53;;;15.87;;
17169;SDS011;8700;48.222;16.342;2023-04-07T03:36:51;19.33;;;17.30;;
17169;SDS011;8700;48.222;16.342;2023-04-07T03:40:13;20.07;;;17.97;;
17169;SDS011;8700;48.222;16.342;2023-04-07T03:43:35;18.73;;;16.80;;
17169;SDS011;8700;48.222;16.342;2023-04-07T03:46:57;20.43;;;18.33;;
17169;SDS011;8700;48.222;16.342;2023-04-07T03:50:19;20.07;;;18.17;;
17169;SDS011;8700;48.222;16.342;2023-04-07T03:53:41;20.83;;;18.83;;
17169;SDS011;8700;48.222;16.342;2023-04-07T03:57:02;22.30;;;19.97;;
17169;SDS011;8700;48.222;16.342;2023-04-07T04:00:24;21.93;;;19.93;;
17169;SDS011;8700;48.222;16.342;2023-04-07T04:03:47;23.27;;;21.03;;
17169;SDS011;8700;48.222;16.342;2023-04-07T04:07:09;21.07;;;19.17;;
17169;SDS011;8700;48.222;16.342;2023-04-07T04:10:30;22.47;;;19.77;;
17169;SDS011;8700;48.222;16.342;2023-04-07T04:13:52;19.70;;;17.87;;
17169;SDS011;8700;48.222;16.342;2023-04-07T04:17:13;19.73;;;17.73;;
17169;SDS011;8700;48.222;16.342;2023-04-07T04:20:36;19.40;;;17.57;;
17169;SDS011;8700;48.222;16.342;2023-04-07T04:23:57;19.93;;;17.97;;
17169;SDS011;8700;48.222;16.342;2023-04-07T04:27:19;20.70;;;18.70;;
17169;SDS011;8700;48.222;16.342;2023-04-07T04:30:40;22.00;;;19.83;;
17169;SDS011;8700;48.222;16.342;2023-04-07T04:34:01;19.53;;;17.43;;
17169;SDS011;8700;48.222;16.342;2023-04-07T04:37:24;19.93;;;17.90;;
17169;SDS011;8700;48.222;16.342;2023-04-07T04:40:45;21.53;;;19.27;;
17169;SDS011;8700;48.222;16.342;2023-04-07T04:44:07;20.33;;;18.27;;
17169;SDS011;8700;48.222;16.342;2023-04-07T04:47:28;19.80;;;17.77;;
17169;SDS011;8700;48.222;16.342;2023-04-07T04:50:50;20.60;;;18.60;;
17169;SDS011;8700;48.222;16.342;2023-04-07T04:54:12;20.37;;;18.30;;
17169;SDS011;8700;48.222;16.342;2023-04-07T04:57:34;19.20;;;17.30;;
17169;SDS011;8700;48.222;16.342;2023-04-07T05:00:55;19.40;;;17.60;;
17169;SDS011;8700;48.222;16.342;2023-04-07T05:04:18;20.33;;;18.33;;
17169;SDS011;8700;48.222;16.342;2023-04-07T05:07:39;19.67;;;17.87;;
17169;SDS011;8700;48.222;16.342;2023-04-07T05:11:02;21.33;;;19.33;;
17169;SDS011;8700;48.222;16.342;2023-04-07T05:14:23;19.90;;;18.13;;
17169;SDS011;8700;48.222;16.342;2023-04-07T05:17:45;19.27;;;17.47;;
17169;SDS011;8700;48.222;16.342;2023-04-07T05:21:09;20.97;;;18.93;;
17169;SDS011;8700;48.222;16.342;2023-04-07T05:24:33;20.40;;;18.67;;
17169;SDS011;8700;48.222;16.342;2023-04-07T05:27:56;19.33;;;17.43;;
17169;SDS011;8700;48.222;16.342;2023-04-07T05:31:18;21.17;;;19.17;;
17169;SDS011;8700;48.222;16.342;2023-04-07T05:34:39;19.93;;;18.03;;
17169;SDS011;8700;48.222;16.342;2023-04-07T05:38:01;21.80;;;18.70;;
17169;SDS011;8700;48.222;16.342;2023-04-07T05:41:22;19.93;;;18.13;;
17169;SDS011;8700;48.222;16.342;2023-04-07T05:44:46;20.87;;;18.77;;
17169;SDS011;8700;48.222;16.342;2023-04-07T05:48:08;20.30;;;18.37;;
17169;SDS011;8700;48.222;16.342;2023-04-07T05:51:33;20.07;;;17.97;;
17169;SDS011;8700;48.222;16.342;2023-04-07T05:54:54;20.67;;;18.67;;
17169;SDS011;8700;48.222;16.342;2023-04-07T05:58:16;20.13;;;18.30;;
17169;SDS011;8700;48.222;16.342;2023-04-07T06:01:38;19.50;;;17.63;;
17169;SDS011;8700;48.222;16.342;2023-04-07T06:05:02;20.37;;;18.53;;
17169;SDS011;8700;48.222;16.342;2023-04-07T06:08:24;20.00;;;17.87;;
17169;SDS011;8700;48.222;16.342;2023-04-07T06:11:45;20.27;;;18.23;;
17169;SDS011;8700;48.222;16.342;2023-04-07T06:15:06;18.80;;;17.20;;
17169;SDS011;8700;48.222;16.342;2023-04-07T06:18:30;19.60;;;17.50;;
17169;SDS011;8700;48.222;16.342;2023-04-07T06:21:51;21.23;;;19.03;;
17169;SDS011;8700;48.222;16.342;2023-04-07T06:25:12;19.20;;;17.20;;
17169;SDS011;8700;48.222;16.342;2023-04-07T06:28:34;18.30;;;16.50;;
17169;SDS011;8700;48.222;16.342;2023-04-07T06:31:55;20.63;;;18.63;;
17169;SDS011;8700;48.222;16.342;2023-04-07T06:35:18;20.23;;;18.33;;
17169;SDS011;8700;48.222;16.342;2023-04-07T06:38:41;20.00;;;18.10;;
17169;SDS011;8700;48.222;16.342;2023-04-07T06:42:03;21.77;;;19.37;;
17169;SDS011;8700;48.222;16.342;2023-04-07T06:45:25;20.93;;;19.03;;
17169;SDS011;8700;48.222;16.342;2023-04-07T06:48:46;20.93;;;18.83;;
17169;SDS011;8700;48.222;16.342;2023-04-07T06:52:09;17.87;;;16.13;;
17169;SDS011;8700;48.222;16.342;2023-04-07T06:55:30;18.57;;;16.87;;
17169;SDS011;8700;48.222;16.342;2023-04-07T06:58:51;19.47;;;17.67;;
17169;SDS011;8700;48.222;16.342;2023-04-07T07:02:14;20.40;;;18.33;;
17169;SDS011;8700;48.222;16.342;2023-04-07T07:05:36;25.67;;;22.97;;
17169;SDS011;8700;48.222;16.342;2023-04-07T07:09:00;22.27;;;19.97;;
17169;SDS011;8700;48.222;16.342;2023-04-07T07:12:22;23.63;;;21.33;;
17169;SDS011;8700;48.222;16.342;2023-04-07T07:15:43;21.33;;;19.50;;
17169;SDS011;8700;48.222;16.342;2023-04-07T07:19:05;21.93;;;19.93;;
17169;SDS011;8700;48.222;16.342;2023-04-07T07:22:26;21.63;;;19.53;;
17169;SDS011;8700;48.222;16.342;2023-04-07T07:25:49;20.00;;;18.10;;
17169;SDS011;8700;48.222;16.342;2023-04-07T07:29:10;22.43;;;20.27;;
17169;SDS011;8700;48.222;16.342;2023-04-07T07:32:32;20.47;;;18.47;;
17169;SDS011;8700;48.222;16.342;2023-04-07T07:35:53;21.87;;;19.77;;
17169;SDS011;8700;48.222;16.342;2023-04-07T07:39:14;21.17;;;18.80;;
17169;SDS011;8700;48.222;16.342;2023-04-07T07:42:37;19.97;;;17.77;;
17169;SDS011;8700;48.222;16.342;2023-04-07T07:45:59;20.67;;;18.97;;
17169;SDS011;8700;48.222;16.342;2023-04-07T07:49:20;21.63;;;19.53;;
17169;SDS011;8700;48.222;16.342;2023-04-07T07:52:41;24.67;;;22.23;;
17169;SDS011;8700;48.222;16.342;2023-04-07T07:56:02;26.20;;;23.80;;
17169;SDS011;8700;48.222;16.342;2023-04-07T07:59:26;24.10;;;21.80;;
17169;SDS011;8700;48.222;16.342;2023-04-07T08:02:47;23.97;;;21.67;;
17169;SDS011;8700;48.222;16.342;2023-04-07T08:06:08;26.30;;;23.60;;
17169;SDS011;8700;48.222;16.342;2023-04-07T08:09:30;21.00;;;19.20;;
17169;SDS011;8700;48.222;16.342;2023-04-07T08:12:51;21.27;;;19.27;;
17169;SDS011;8700;48.222;16.342;2023-04-07T08:16:14;21.17;;;19.17;;
17169;SDS011;8700;48.222;16.342;2023-04-07T08:19:35;42.83;;;38.40;;
17169;SDS011;8700;48.222;16.342;2023-04-07T08:22:56;30.43;;;27.77;;
17169;SDS011;8700;48.222;16.342;2023-04-07T08:26:18;21.23;;;19.37;;
17169;SDS011;8700;48.222;16.342;2023-04-07T08:29:39;23.17;;;19.43;;
17169;SDS011;8700;48.222;16.342;2023-04-07T08:33:02;20.93;;;18.93;;
17169;SDS011;8700;48.222;16.342;2023-04-07T08:36:25;20.47;;;18.57;;
17169;SDS011;8700;48.222;16.342;2023-04-07T08:39:47;25.73;;;23.47;;
17169;SDS011;8700;48.222;16.342;2023-04-07T08:43:08;25.03;;;22.53;;
17169;SDS011;8700;48.222;16.342;2023-04-07T08:46:30;29.58;;;24.38;;
17169;SDS011;8700;48.222;16.342;2023-04-07T08:49:54;21.60;;;19.27;;
17169;SDS011;8700;48.222;16.342;2023-04-07T08:53:22;23.10;;;20.73;;
17169;SDS011;8700;48.222;16.342;2023-04-07T08:56:48;19.37;;;17.63;;
17169;SDS011;8700;48.222;16.342;2023-04-07T09:00:10;19.17;;;17.57;;
17169;SDS011;8700;48.222;16.342;2023-04-07T09:03:33;22.53;;;20.03;;
17169;SDS011;8700;48.222;16.342;2023-04-07T09:06:57;25.23;;;22.67;;
17169;SDS011;8700;48.222;16.342;2023-04-07T09:10:20;25.23;;;22.30;;
17169;SDS011;8700;48.222;16.342;2023-04-07T09:13:41;25.40;;;22.83;;
17169;SDS011;8700;48.222;16.342;2023-04-07T09:17:03;24.20;;;21.87;;
17169;SDS011;8700;48.222;16.342;2023-04-07T09:20:24;21.80;;;19.77;;
17169;SDS011;8700;48.222;16.342;2023-04-07T09:23:47;22.77;;;20.67;;
17169;SDS011;8700;48.222;16.342;2023-04-07T09:27:12;26.67;;;24.17;;
17169;SDS011;8700;48.222;16.342;2023-04-07T09:30:35;24.07;;;21.77;;
17169;SDS011;8700;48.222;16.342;2023-04-07T09:33:56;24.40;;;21.97;;
17169;SDS011;8700;48.222;16.342;2023-04-07T09:37:20;20.60;;;18.60;;
17169;SDS011;8700;48.222;16.342;2023-04-07T09:40:43;26.17;;;20.53;;
17169;SDS011;8700;48.222;16.342;2023-04-07T09:44:06;22.70;;;20.40;;
17169;SDS011;8700;48.222;16.342;2023-04-07T09:47:28;20.80;;;18.60;;
17169;SDS011;8700;48.222;16.342;2023-04-07T09:50:51;22.17;;;20.27;;
17169;SDS011;8700;48.222;16.342;2023-04-07T09:54:32;26.07;;;23.57;;
17169;SDS011;8700;48.222;16.342;2023-04-07T09:57:57;22.30;;;20.10;;
17169;SDS011;8700;48.222;16.342;2023-04-07T10:01:19;20.93;;;18.87;;
17169;SDS011;8700;48.222;16.342;2023-04-07T10:04:41;20.93;;;19.03;;
17169;SDS011;8700;48.222;16.342;2023-04-07T10:08:02;22.73;;;20.53;;
17169;SDS011;8700;48.222;16.342;2023-04-07T10:11:25;21.00;;;17.50;;
17169;SDS011;8700;48.222;16.342;2023-04-07T10:14:48;21.17;;;19.17;;
17169;SDS011;8700;48.222;16.342;2023-04-07T10:18:13;21.27;;;19.20;;
17169;SDS011;8700;48.222;16.342;2023-04-07T10:21:36;23.83;;;21.40;;
17169;SDS011;8700;48.222;16.342;2023-04-07T10:25:02;24.02;;;21.88;;
17169;SDS011;8700;48.222;16.342;2023-04-07T10:28:26;21.73;;;19.75;;
17169;SDS011;8700;48.222;16.342;2023-04-07T10:31:52;19.88;;;17.88;;
17169;SDS011;8700;48.222;16.342;2023-04-07T10:35:13;19.77;;;17.87;;
17169;SDS011;8700;48.222;16.342;2023-04-07T10:38:35;24.63;;;22.13;;
17169;SDS011;8700;48.222;16.342;2023-04-07T10:41:56;20.93;;;19.13;;
17169;SDS011;8700;48.222;16.342;2023-04-07T10:45:18;20.83;;;19.13;;
17169;SDS011;8700;48.222;16.342;2023-04-07T10:49:15;21.03;;;19.13;;
17169;SDS011;8700;48.222;16.342;2023-04-07T10:52:37;21.33;;;19.27;;
17169;SDS011;8700;48.222;16.342;2023-04-07T10:55:59;21.27;;;19.33;;
17169;SDS011;8700;48.222;16.342;2023-04-07T10:59:20;21.87;;;19.57;;
17169;SDS011;8700;48.222;16.342;2023-04-07T11:02:45;22.10;;;19.90;;
17169;SDS011;8700;48.222;16.342;2023-04-07T11:06:09;21.07;;;19.13;;
17169;SDS011;8700;48.222;16.342;2023-04-07T11:09:31;20.53;;;18.93;;
17169;SDS011;8700;48.222;16.342;2023-04-07T11:12:59;20.10;;;18.10;;
17169;SDS011;8700;48.222;16.342;2023-04-07T11:16:33;18.70;;;17.10;;
17169;SDS011;8700;48.222;16.342;2023-04-07T11:20:01;20.90;;;18.90;;
17169;SDS011;8700;48.222;16.342;2023-04-07T11:23:24;21.47;;;19.60;;
17169;SDS011;8700;48.222;16.342;2023-04-07T11:26:46;19.98;;;18.08;;
17169;SDS011;8700;48.222;16.342;2023-04-07T11:30:07;20.70;;;18.67;;
17169;SDS011;8700;48.222;16.342;2023-04-07T11:33:30;20.80;;;18.95;;
17169;SDS011;8700;48.222;16.342;2023-04-07T11:36:53;20.60;;;18.57;;
17169;SDS011;8700;48.222;16.342;2023-04-07T11:40:31;21.93;;;19.73;;
17169;SDS011;8700;48.222;16.342;2023-04-07T11:44:03;21.93;;;19.93;;
17169;SDS011;8700;48.222;16.342;2023-04-07T11:47:32;19.02;;;17.35;;
17169;SDS011;8700;48.222;16.342;2023-04-07T11:50:54;19.98;;;18.17;;
17169;SDS011;8700;48.222;16.342;2023-04-07T11:54:16;20.25;;;18.38;;
17169;SDS011;8700;48.222;16.342;2023-04-07T11:57:38;19.58;;;17.73;;
17169;SDS011;8700;48.222;16.342;2023-04-07T12:01:00;19.02;;;17.25;;
17169;SDS011;8700;48.222;16.342;2023-04-07T12:04:27;18.15;;;16.65;;
17169;SDS011;8700;48.222;16.342;2023-04-07T12:07:52;19.13;;;17.50;;
17169;SDS011;8700;48.222;16.342;2023-04-07T12:11:16;19.95;;;18.23;;
17169;SDS011;8700;48.222;16.342;2023-04-07T12:14:39;17.90;;;16.30;;
17169;SDS011;8700;48.222;16.342;2023-04-07T12:18:01;18.60;;;17.00;;
17169;SDS011;8700;48.222;16.342;2023-04-07T12:21:22;18.20;;;16.65;;
17169;SDS011;8700;48.222;16.342;2023-04-07T12:24:45;17.60;;;15.93;;
17169;SDS011;8700;48.222;16.342;2023-04-07T12:28:06;17.73;;;16.13;;
17169;SDS011;8700;48.222;16.342;2023-04-07T12:31:29;18.33;;;16.58;;
17169;SDS011;8700;48.222;16.342;2023-04-07T12:34:50;17.67;;;15.98;;
17169;SDS011;8700;48.222;16.342;2023-04-07T12:38:12;17.25;;;15.80;;
17169;SDS011;8700;48.222;16.342;2023-04-07T12:41:34;18.05;;;16.25;;
17169;SDS011;8700;48.222;16.342;2023-04-07T12:44:57;16.55;;;15.05;;
17169;SDS011;8700;48.222;16.342;2023-04-07T12:48:20;18.48;;;16.77;;
17169;SDS011;8700;48.222;16.342;2023-04-07T12:51:41;17.30;;;15.80;;
17169;SDS011;8700;48.222;16.342;2023-04-07T12:55:03;17.95;;;16.45;;
17169;SDS011;8700;48.222;16.342;2023-04-07T12:58:25;16.52;;;15.00;;
17169;SDS011;8700;48.222;16.342;2023-04-07T13:01:47;17.88;;;16.23;;
17169;SDS011;8700;48.222;16.342;2023-04-07T13:05:09;17.75;;;16.15;;
17169;SDS011;8700;48.222;16.342;2023-04-07T13:08:31;17.75;;;16.13;;
17169;SDS011;8700;48.222;16.342;2023-04-07T13:11:52;18.63;;;16.92;;
17169;SDS011;8700;48.222;16.342;2023-04-07T13:15:15;17.38;;;15.57;;
17169;SDS011;8700;48.222;16.342;2023-04-07T13:18:36;16.55;;;15.05;;
17169;SDS011;8700;48.222;16.342;2023-04-07T13:21:59;17.70;;;16.17;;
17169;SDS011;8700;48.222;16.342;2023-04-07T13:25:21;19.38;;;17.60;;
17169;SDS011;8700;48.222;16.342;2023-04-07T13:28:43;21.30;;;19.23;;
17169;SDS011;8700;48.222;16.342;2023-04-07T13:32:06;20.33;;;18.63;;
17169;SDS011;8700;48.222;16.342;2023-04-07T13:35:28;21.92;;;19.27;;
17169;SDS011;8700;48.222;16.342;2023-04-07T13:38:55;18.88;;;17.17;;
17169;SDS011;8700;48.222;16.342;2023-04-07T13:42:16;20.92;;;19.13;;
17169;SDS011;8700;48.222;16.342;2023-04-07T13:45:39;24.52;;;20.30;;
17169;SDS011;8700;48.222;16.342;2023-04-07T13:49:02;21.00;;;18.98;;
17169;SDS011;8700;48.222;16.342;2023-04-07T13:52:23;36.05;;;30.23;;
17169;SDS011;8700;48.222;16.342;2023-04-07T13:55:46;31.98;;;27.88;;
17169;SDS011;8700;48.222;16.342;2023-04-07T13:59:07;35.83;;;31.52;;
17169;SDS011;8700;48.222;16.342;2023-04-07T14:02:29;25.00;;;22.75;;
17169;SDS011;8700;48.222;16.342;2023-04-07T14:05:51;23.45;;;21.25;;
17169;SDS011;8700;48.222;16.342;2023-04-07T14:09:12;24.02;;;21.98;;
17169;SDS011;8700;48.222;16.342;2023-04-07T14:12:35;24.50;;;22.15;;
17169;SDS011;8700;48.222;16.342;2023-04-07T14:15:56;19.20;;;17.48;;
17169;SDS011;8700;48.222;16.342;2023-04-07T14:19:18;22.73;;;20.52;;
17169;SDS011;8700;48.222;16.342;2023-04-07T14:22:40;20.25;;;18.33;;
17169;SDS011;8700;48.222;16.342;2023-04-07T14:26:02;20.02;;;18.35;;
17169;SDS011;8700;48.222;16.342;2023-04-07T14:29:25;19.27;;;17.48;;
17169;SDS011;8700;48.222;16.342;2023-04-07T14:32:46;18.98;;;17.30;;
17169;SDS011;8700;48.222;16.342;2023-04-07T14:36:07;20.63;;;18.73;;
17169;SDS011;8700;48.222;16.342;2023-04-07T14:39:29;17.75;;;16.25;;
17169;SDS011;8700;48.222;16.342;2023-04-07T14:42:53;19.42;;;17.83;;
17169;SDS011;8700;48.222;16.342;2023-04-07T14:46:17;18.58;;;16.77;;
17169;SDS011;8700;48.222;16.342;2023-04-07T14:49:39;18.10;;;16.40;;
17169;SDS011;8700;48.222;16.342;2023-04-07T14:53:02;17.67;;;16.17;;
17169;SDS011;8700;48.222;16.342;2023-04-07T14:56:24;19.83;;;18.05;;
17169;SDS011;8700;48.222;16.342;2023-04-07T14:59:46;19.13;;;17.52;;
17169;SDS011;8700;48.222;16.342;2023-04-07T15:03:08;19.77;;;17.70;;
17169;SDS011;8700;48.222;16.342;2023-04-07T15:06:30;17.67;;;16.17;;
17169;SDS011;8700;48.222;16.342;2023-04-07T15:09:51;18.15;;;15.50;;
17169;SDS011;8700;48.222;16.342;2023-04-07T15:13:13;18.08;;;16.02;;
17169;SDS011;8700;48.222;16.342;2023-04-07T15:16:34;18.50;;;16.70;;
17169;SDS011;8700;48.222;16.342;2023-04-07T15:19:57;17.73;;;16.02;;
17169;SDS011;8700;48.222;16.342;2023-04-07T15:23:18;16.45;;;14.77;;
17169;SDS011;8700;48.222;16.342;2023-04-07T15:26:39;17.17;;;15.80;;
17169;SDS011;8700;48.222;16.342;2023-04-07T15:30:01;17.58;;;15.75;;
17169;SDS011;8700;48.222;16.342;2023-04-07T15:33:22;16.90;;;14.95;;
17169;SDS011;8700;48.222;16.342;2023-04-07T15:36:45;21.52;;;19.40;;
17169;SDS011;8700;48.222;16.342;2023-04-07T15:40:06;18.30;;;16.43;;
17169;SDS011;8700;48.222;16.342;2023-04-07T15:43:28;17.02;;;15.40;;
17169;SDS011;8700;48.222;16.342;2023-04-07T15:46:50;18.00;;;16.35;;
17169;SDS011;8700;48.222;16.342;2023-04-07T15:50:12;18.13;;;16.38;;
17169;SDS011;8700;48.222;16.342;2023-04-07T15:53:34;19.23;;;17.38;;
17169;SDS011;8700;48.222;16.342;2023-04-07T15:56:56;18.97;;;17.13;;
17169;SDS011;8700;48.222;16.342;2023-04-07T16:00:18;18.73;;;16.90;;
17169;SDS011;8700;48.222;16.342;2023-04-07T16:03:40;19.30;;;17.60;;
17169;SDS011;8700;48.222;16.342;2023-04-07T16:07:01;19.10;;;17.17;;
17169;SDS011;8700;48.222;16.342;2023-04-07T16:10:24;21.07;;;19.17;;
17169;SDS011;8700;48.222;16.342;2023-04-07T16:13:45;20.83;;;18.47;;
17169;SDS011;8700;48.222;16.342;2023-04-07T16:17:06;19.80;;;18.00;;
17169;SDS011;8700;48.222;16.342;2023-04-07T16:20:27;19.23;;;17.57;;
17169;SDS011;8700;48.222;16.342;2023-04-07T16:23:49;18.37;;;16.80;;
17169;SDS011;8700;48.222;16.342;2023-04-07T16:27:11;18.40;;;16.60;;
17169;SDS011;8700;48.222;16.342;2023-04-07T16:30:33;18.93;;;17.13;;
17169;SDS011;8700;48.222;16.342;2023-04-07T16:33:54;19.77;;;17.80;;
17169;SDS011;8700;48.222;16.342;2023-04-07T16:37:15;20.90;;;19.00;;
17169;SDS011;8700;48.222;16.342;2023-04-07T16:40:36;21.63;;;19.47;;
17169;SDS011;8700;48.222;16.342;2023-04-07T16:43:59;20.70;;;18.67;;
17169;SDS011;8700;48.222;16.342;2023-04-07T16:47:20;20.50;;;18.50;;
17169;SDS011;8700;48.222;16.342;2023-04-07T16:50:42;22.47;;;20.37;;
17169;SDS011;8700;48.222;16.342;2023-04-07T16:54:04;21.13;;;19.07;;
17169;SDS011;8700;48.222;16.342;2023-04-07T16:57:25;21.43;;;19.43;;
17169;SDS011;8700;48.222;16.342;2023-04-07T17:00:48;22.30;;;20.30;;
17169;SDS011;8700;48.222;16.342;2023-04-07T17:04:10;21.97;;;20.00;;
17169;SDS011;8700;48.222;16.342;2023-04-07T17:07:31;22.47;;;20.23;;
17169;SDS011;8700;48.222;16.342;2023-04-07T17:10:52;20.90;;;18.97;;
17169;SDS011;8700;48.222;16.342;2023-04-07T17:14:13;21.10;;;19.00;;
17169;SDS011;8700;48.222;16.342;2023-04-07T17:17:36;21.00;;;18.93;;
17169;SDS011;8700;48.222;16.342;2023-04-07T17:20:57;22.73;;;20.43;;
17169;SDS011;8700;48.222;16.342;2023-04-07T17:24:19;21.87;;;19.93;;
17169;SDS011;8700;48.222;16.342;2023-04-07T17:27:43;20.40;;;18.50;;
17169;SDS011;8700;48.222;16.342;2023-04-07T17:31:06;20.80;;;18.63;;
17169;SDS011;8700;48.222;16.342;2023-04-07T17:34:28;20.67;;;18.67;;
17169;SDS011;8700;48.222;16.342;2023-04-07T17:37:52;21.90;;;19.57;;
17169;SDS011;8700;48.222;16.342;2023-04-07T17:41:14;19.90;;;17.87;;
17169;SDS011;8700;48.222;16.342;2023-04-07T17:44:36;21.73;;;19.83;;
17169;SDS011;8700;48.222;16.342;2023-04-07T17:47:58;22.10;;;20.00;;
17169;SDS011;8700;48.222;16.342;2023-04-07T17:51:23;22.57;;;20.40;;
17169;SDS011;8700;48.222;16.342;2023-04-07T17:54:44;20.10;;;18.20;;
17169;SDS011;8700;48.222;16.342;2023-04-07T17:58:05;20.77;;;18.83;;
17169;SDS011;8700;48.222;16.342;2023-04-07T18:01:26;20.33;;;18.30;;
17169;SDS011;8700;48.222;16.342;2023-04-07T18:04:48;19.67;;;17.80;;
17169;SDS011;8700;48.222;16.342;2023-04-07T18:08:11;20.60;;;18.60;;
17169;SDS011;8700;48.222;16.342;2023-04-07T18:11:33;21.30;;;19.33;;
17169;SDS011;8700;48.222;16.342;2023-04-07T18:14:54;20.90;;;18.80;;
17169;SDS011;8700;48.222;16.342;2023-04-07T18:18:15;20.13;;;18.37;;
17169;SDS011;8700;48.222;16.342;2023-04-07T18:21:38;19.10;;;17.27;;
17169;SDS011;8700;48.222;16.342;2023-04-07T18:25:00;20.63;;;18.87;;
17169;SDS011;8700;48.222;16.342;2023-04-07T18:28:22;20.80;;;19.00;;
17169;SDS011;8700;48.222;16.342;2023-04-07T18:31:43;20.07;;;18.37;;
17169;SDS011;8700;48.222;16.342;2023-04-07T18:35:05;20.33;;;18.47;;
17169;SDS011;8700;48.222;16.342;2023-04-07T18:38:26;20.17;;;18.37;;
17169;SDS011;8700;48.222;16.342;2023-04-07T18:41:50;20.37;;;18.57;;
17169;SDS011;8700;48.222;16.342;2023-04-07T18:45:11;20.80;;;18.57;;
17169;SDS011;8700;48.222;16.342;2023-04-07T18:48:34;24.87;;;22.43;;
17169;SDS011;8700;48.222;16.342;2023-04-07T18:51:55;21.37;;;19.43;;
17169;SDS011;8700;48.222;16.342;2023-04-07T18:55:17;21.30;;;19.50;;
17169;SDS011;8700;48.222;16.342;2023-04-07T18:58:40;20.43;;;18.50;;
17169;SDS011;8700;48.222;16.342;2023-04-07T19:02:04;19.97;;;17.87;;
17169;SDS011;8700;48.222;16.342;2023-04-07T19:05:25;22.20;;;20.10;;
17169;SDS011;8700;48.222;16.342;2023-04-07T19:08:47;22.07;;;19.97;;
17169;SDS011;8700;48.222;16.342;2023-04-07T19:12:09;21.90;;;19.87;;
17169;SDS011;8700;48.222;16.342;2023-04-07T19:15:32;20.97;;;18.97;;
17169;SDS011;8700;48.222;16.342;2023-04-07T19:18:57;21.27;;;19.17;;
17169;SDS011;8700;48.222;16.342;2023-04-07T19:22:18;19.90;;;17.97;;
17169;SDS011;8700;48.222;16.342;2023-04-07T19:25:39;28.40;;;25.33;;
17169;SDS011;8700;48.222;16.342;2023-04-07T19:29:01;21.87;;;19.80;;
17169;SDS011;8700;48.222;16.342;2023-04-07T19:32:24;20.83;;;18.83;;
17169;SDS011;8700;48.222;16.342;2023-04-07T19:35:45;21.63;;;19.37;;
17169;SDS011;8700;48.222;16.342;2023-04-07T19:39:06;21.90;;;19.73;;
17169;SDS011;8700;48.222;16.342;2023-04-07T19:42:27;24.17;;;21.87;;
17169;SDS011;8700;48.222;16.342;2023-04-07T19:45:49;25.13;;;22.77;;